Time;durP1;ratioP1;P1;durP2;ratioP2;P2;SDS_P1;SDS_P2;PMS_P1;PMS_P2;Temp;Humidity;BMP_temperature;BMP_pressure;BME280_temperature;BME280_humidity;BME280_pressure;Samples;Min_cycle;Max_cycle;Signal;HPM_P1;HPM_P2
2022/02/26 00:04:09;;;;;;;2.75;2.03;;;3.90;91.70;;;;;;10050548;28;20033;-67
2022/02/26 00:09:00;;;;;;;6.40;2.13;;;3.90;91.70;;;;;;10048441;28;20037;-68
2022/02/26 00:13:50;;;;;;;2.67;1.63;;;3.90;91.80;;;;;;10042587;28;20164;-70
2022/02/26 00:18:41;;;;;;;4.00;2.20;;;3.90;91.80;;;;;;10041879;28;20021;-70
2022/02/26 00:23:32;;;;;;;3.88;1.95;;;3.90;91.70;;;;;;10033692;28;20057;-68
2022/02/26 00:28:23;;;;;;;3.13;2.10;;;3.80;91.80;;;;;;10046841;28;20155;-65
2022/02/26 00:33:14;;;;;;;5.18;2.20;;;3.80;92.00;;;;;;10041173;28;20227;-70
2022/02/26 00:38:05;;;;;;;7.53;2.13;;;3.70;92.00;;;;;;10045080;28;20071;-68
2022/02/26 00:42:56;;;;;;;3.55;1.90;;;3.80;91.90;;;;;;10044644;28;20040;-70
2022/02/26 00:47:46;;;;;;;3.80;1.92;;;3.90;92.00;;;;;;10048837;28;20523;-70
2022/02/26 00:52:37;;;;;;;4.03;2.35;;;3.80;92.00;;;;;;10041306;28;20025;-70
2022/02/26 00:57:28;;;;;;;3.03;2.15;;;3.80;92.00;;;;;;10043588;28;20107;-69
2022/02/26 01:02:19;;;;;;;3.70;2.08;;;3.80;92.10;;;;;;10049954;28;20492;-69
2022/02/26 01:07:10;;;;;;;2.70;1.88;;;3.70;92.10;;;;;;10038092;28;20034;-68
2022/02/26 01:12:03;;;;;;;5.78;3.05;;;3.70;92.20;;;;;;10035972;28;20054;-70
2022/02/26 01:16:54;;;;;;;3.58;2.33;;;3.60;92.20;;;;;;10045973;28;20026;-71
2022/02/26 01:21:45;;;;;;;3.70;2.22;;;3.60;92.30;;;;;;10044028;28;20030;-70
2022/02/26 01:26:35;;;;;;;5.28;2.75;;;3.60;92.30;;;;;;10043557;28;20044;-67
2022/02/26 01:31:26;;;;;;;3.83;2.50;;;3.70;92.30;;;;;;10038524;28;20030;-69
2022/02/26 01:36:17;;;;;;;6.07;2.60;;;3.60;92.50;;;;;;10044724;28;20526;-69
2022/02/26 01:41:08;;;;;;;4.60;2.20;;;3.70;92.50;;;;;;10039336;28;20053;-69
2022/02/26 01:45:59;;;;;;;5.78;2.70;;;3.90;92.40;;;;;;10042408;28;20091;-70
2022/02/26 01:50:50;;;;;;;7.20;2.83;;;3.70;92.40;;;;;;10032080;28;20523;-68
2022/02/26 01:55:41;;;;;;;4.85;2.72;;;3.70;92.50;;;;;;10048104;28;20029;-68
2022/02/26 02:00:31;;;;;;;6.55;3.03;;;3.60;92.50;;;;;;10045382;28;20120;-66
2022/02/26 02:05:25;;;;;;;4.68;2.38;;;3.50;92.70;;;;;;10041649;28;20048;-63
2022/02/26 02:10:16;;;;;;;5.22;2.78;;;3.40;92.80;;;;;;10039339;28;20030;-65
2022/02/26 02:15:07;;;;;;;4.88;2.40;;;3.50;92.90;;;;;;10045956;28;20492;-64
2022/02/26 02:19:58;;;;;;;5.03;2.50;;;3.60;92.70;;;;;;10045399;28;20037;-63
2022/02/26 02:24:49;;;;;;;6.13;2.88;;;3.70;92.80;;;;;;10042290;28;20045;-70
2022/02/26 02:29:39;;;;;;;3.10;2.28;;;3.70;92.80;;;;;;10046537;28;20033;-66
2022/02/26 02:34:30;;;;;;;4.03;2.38;;;3.70;92.70;;;;;;10044522;28;20521;-69
2022/02/26 02:39:21;;;;;;;5.25;2.85;;;3.60;92.90;;;;;;10044896;28;20163;-68
2022/02/26 02:44:13;;;;;;;4.32;2.28;;;3.70;92.90;;;;;;10046477;28;20029;-67
2022/02/26 02:49:04;;;;;;;5.85;3.08;;;3.70;92.90;;;;;;10036260;28;20738;-69
2022/02/26 02:53:55;;;;;;;3.70;2.42;;;3.60;92.90;;;;;;10035210;28;20398;-71
2022/02/26 02:58:46;;;;;;;4.63;2.63;;;3.70;92.90;;;;;;10045134;28;20026;-69
2022/02/26 03:03:36;;;;;;;4.20;2.38;;;3.60;93.00;;;;;;10049589;28;20021;-67
2022/02/26 03:08:27;;;;;;;6.22;3.03;;;3.60;93.40;;;;;;10050273;28;20030;-69
2022/02/26 03:13:20;;;;;;;3.60;2.40;;;3.60;93.20;;;;;;10049761;28;20055;-68
2022/02/26 03:18:10;;;;;;;6.18;2.75;;;3.80;93.20;;;;;;10043046;28;20034;-67
2022/02/26 03:23:01;;;;;;;3.70;2.65;;;3.90;93.10;;;;;;10053055;28;20025;-69
2022/02/26 03:27:52;;;;;;;4.38;1.92;;;3.90;93.10;;;;;;10041644;28;20377;-67
2022/02/26 03:32:43;;;;;;;4.28;2.22;;;4.00;93.10;;;;;;10051905;28;20018;-69
2022/02/26 03:37:34;;;;;;;4.53;2.78;;;4.00;93.10;;;;;;10044439;28;20029;-65
2022/02/26 03:42:25;;;;;;;1.92;1.58;;;4.00;93.10;;;;;;10047659;28;20036;-69
2022/02/26 03:47:16;;;;;;;4.25;2.22;;;3.90;93.10;;;;;;10051105;28;20038;-71
2022/02/26 03:52:07;;;;;;;3.50;2.45;;;3.90;93.30;;;;;;10042807;28;20022;-70
2022/02/26 03:56:58;;;;;;;4.65;3.33;;;3.90;93.30;;;;;;10046169;28;20408;-69
2022/02/26 04:01:48;;;;;;;4.32;2.63;;;3.90;93.30;;;;;;10045435;28;20021;-69
2022/02/26 04:06:39;;;;;;;4.57;2.97;;;4.10;93.20;;;;;;10043730;28;20042;-67
2022/02/26 04:11:30;;;;;;;4.72;2.80;;;4.20;93.20;;;;;;10048608;28;20032;-65
2022/02/26 04:16:21;;;;;;;3.63;2.35;;;4.20;93.10;;;;;;10042529;28;20136;-65
2022/02/26 04:21:11;;;;;;;6.75;2.50;;;4.30;93.20;;;;;;10051530;28;20118;-66
2022/02/26 04:26:02;;;;;;;6.75;2.63;;;4.30;93.30;;;;;;10039793;28;20030;-63
2022/02/26 04:30:53;;;;;;;5.00;2.88;;;4.30;93.30;;;;;;10047833;28;20126;-69
2022/02/26 04:35:44;;;;;;;7.57;3.38;;;4.10;93.20;;;;;;10037925;28;20068;-70
2022/02/26 04:40:35;;;;;;;4.95;2.55;;;3.90;93.50;;;;;;10044054;28;20057;-69
2022/02/26 04:45:25;;;;;;;4.45;2.85;;;4.00;93.70;;;;;;10049563;28;20523;-69
2022/02/26 04:50:16;;;;;;;4.00;2.90;;;3.80;93.50;;;;;;10038018;28;20034;-66
2022/02/26 04:55:08;;;;;;;4.03;2.08;;;3.90;93.60;;;;;;10049188;28;20022;-64
2022/02/26 04:59:59;;;;;;;3.55;2.83;;;4.00;93.70;;;;;;10042847;28;20071;-68
2022/02/26 05:04:49;;;;;;;4.40;2.50;;;4.00;93.60;;;;;;10043679;28;20544;-69
2022/02/26 05:09:40;;;;;;;3.90;2.60;;;4.00;93.70;;;;;;10036903;28;20038;-68
2022/02/26 05:14:31;;;;;;;5.95;2.33;;;4.10;93.50;;;;;;10039176;28;20193;-69
2022/02/26 05:19:21;;;;;;;4.72;2.45;;;4.10;93.70;;;;;;10046337;28;20107;-68
2022/02/26 05:24:12;;;;;;;7.03;2.97;;;4.20;93.50;;;;;;10045526;28;20273;-69
2022/02/26 05:29:03;;;;;;;5.20;2.72;;;4.20;93.40;;;;;;10045127;28;20982;-69
2022/02/26 05:33:54;;;;;;;3.70;2.28;;;4.20;93.40;;;;;;10042285;28;20047;-67
2022/02/26 05:38:45;;;;;;;4.13;2.15;;;4.20;93.40;;;;;;10045518;28;20361;-71
2022/02/26 05:43:35;;;;;;;3.72;2.15;;;4.20;93.50;;;;;;10037865;28;20026;-68
2022/02/26 05:48:26;;;;;;;7.80;2.88;;;4.10;93.50;;;;;;10040437;28;20041;-69
2022/02/26 05:53:17;;;;;;;5.65;2.78;;;4.20;93.40;;;;;;10043573;28;20025;-70
2022/02/26 05:58:07;;;;;;;2.70;2.20;;;4.20;93.50;;;;;;10041263;28;20044;-67
2022/02/26 06:02:58;;;;;;;4.55;2.50;;;4.10;93.40;;;;;;10043762;28;20026;-69
2022/02/26 06:07:49;;;;;;;4.35;2.30;;;4.20;93.30;;;;;;10035755;28;20069;-71
2022/02/26 06:12:40;;;;;;;5.93;2.50;;;4.20;93.30;;;;;;10045388;28;20144;-71
2022/02/26 06:17:30;;;;;;;4.78;2.38;;;4.10;93.40;;;;;;10046485;28;20069;-68
2022/02/26 06:22:21;;;;;;;4.88;2.55;;;4.10;93.40;;;;;;10043940;28;20032;-70
2022/02/26 06:27:12;;;;;;;7.30;3.03;;;4.10;93.40;;;;;;10036825;28;20037;-68
2022/02/26 06:32:03;;;;;;;6.18;2.92;;;4.10;93.50;;;;;;10045146;28;20040;-62
2022/02/26 06:36:54;;;;;;;6.22;3.50;;;4.00;93.40;;;;;;10040302;28;20026;-64
2022/02/26 06:41:44;;;;;;;5.70;2.95;;;4.00;93.50;;;;;;10048385;28;20028;-65
2022/02/26 06:46:37;;;;;;;8.18;2.47;;;4.00;93.40;;;;;;10054837;28;20046;-66
2022/02/26 06:51:29;;;;;;;5.25;2.53;;;3.90;93.50;;;;;;10047994;28;20033;-69
2022/02/26 06:56:19;;;;;;;6.68;3.38;;;3.90;93.60;;;;;;10052759;28;20036;-69
2022/02/26 07:01:10;;;;;;;6.90;2.83;;;4.00;93.50;;;;;;10045227;28;20033;-67
2022/02/26 07:06:01;;;;;;;7.15;3.63;;;4.00;93.60;;;;;;10046558;28;20045;-67
2022/02/26 07:10:51;;;;;;;5.82;3.05;;;4.20;93.50;;;;;;10050263;28;20025;-71
2022/02/26 07:15:42;;;;;;;5.95;3.17;;;4.30;93.50;;;;;;10045993;28;20042;-69
2022/02/26 07:20:32;;;;;;;6.00;2.78;;;4.40;93.40;;;;;;10050706;28;20065;-69
2022/02/26 07:25:24;;;;;;;3.30;2.47;;;4.40;93.50;;;;;;10047087;28;20029;-69
2022/02/26 07:30:15;;;;;;;5.18;3.20;;;4.30;93.70;;;;;;10043380;28;20025;-65
2022/02/26 07:35:06;;;;;;;7.18;3.28;;;4.40;93.70;;;;;;10049157;28;20029;-67
2022/02/26 07:39:57;;;;;;;5.78;3.60;;;4.60;93.60;;;;;;10051910;28;20603;-67
2022/02/26 07:44:48;;;;;;;7.68;4.32;;;4.60;93.60;;;;;;10042333;28;20021;-64
2022/02/26 07:49:39;;;;;;;6.22;2.90;;;4.70;93.60;;;;;;10050383;28;20047;-68
2022/02/26 07:54:29;;;;;;;8.18;3.67;;;4.80;93.40;;;;;;10051228;28;20017;-68
2022/02/26 07:59:20;;;;;;;7.47;3.05;;;4.90;93.30;;;;;;10052358;28;20033;-69
2022/02/26 08:04:11;;;;;;;7.00;3.67;;;4.80;93.50;;;;;;10042417;28;20025;-70
2022/02/26 08:09:03;;;;;;;4.10;2.30;;;4.70;93.30;;;;;;10047828;28;20075;-69
2022/02/26 08:13:53;;;;;;;9.40;3.33;;;4.60;93.50;;;;;;10049798;28;20516;-66
2022/02/26 08:18:44;;;;;;;5.65;2.65;;;4.60;93.40;;;;;;10045773;28;20021;-69
2022/02/26 08:23:35;;;;;;;7.78;3.42;;;4.60;93.30;;;;;;10040840;28;20037;-64
2022/02/26 08:28:25;;;;;;;8.23;4.13;;;4.80;93.10;;;;;;10043196;28;20369;-66
2022/02/26 08:33:16;;;;;;;7.13;3.17;;;4.80;93.00;;;;;;10043864;28;20026;-66
2022/02/26 08:38:07;;;;;;;5.57;3.38;;;4.90;92.90;;;;;;10047609;28;20026;-70
2022/02/26 08:42:57;;;;;;;5.88;3.10;;;5.10;92.80;;;;;;10050336;28;20024;-66
2022/02/26 08:47:48;;;;;;;6.70;2.95;;;5.20;92.70;;;;;;10046716;28;20230;-69
2022/02/26 08:52:42;;;;;;;4.13;2.58;;;5.30;92.80;;;;;;10047283;28;20036;-67
2022/02/26 08:57:32;;;;;;;8.05;3.75;;;5.40;92.80;;;;;;10045905;28;20108;-64
2022/02/26 09:02:23;;;;;;;4.88;2.72;;;5.50;92.70;;;;;;10047146;28;21532;-68
2022/02/26 09:07:14;;;;;;;6.75;2.40;;;5.70;92.60;;;;;;10048137;28;20136;-70
2022/02/26 09:12:06;;;;;;;5.88;2.63;;;5.80;92.90;;;;;;10038720;28;20048;-66
2022/02/26 09:16:57;;;;;;;10.00;2.67;;;5.80;92.60;;;;;;10038800;28;20218;-65
2022/02/26 09:21:50;;;;;;;7.75;2.90;;;5.90;92.50;;;;;;10050788;28;20254;-68
2022/02/26 09:26:41;;;;;;;4.72;2.42;;;6.10;92.50;;;;;;10035711;28;20049;-68
2022/02/26 09:31:32;;;;;;;5.25;2.63;;;5.90;92.60;;;;;;10038257;28;20033;-70
2022/02/26 09:36:22;;;;;;;3.80;2.35;;;5.80;92.70;;;;;;10040408;28;20079;-67
2022/02/26 09:41:13;;;;;;;4.85;2.45;;;6.10;92.60;;;;;;10046684;28;20057;-68
2022/02/26 09:46:05;;;;;;;5.15;2.45;;;6.50;92.40;;;;;;10042303;28;20045;-69
2022/02/26 09:50:57;;;;;;;5.75;2.78;;;6.70;92.30;;;;;;10042165;28;20068;-70
2022/02/26 09:55:50;;;;;;;5.03;3.05;;;6.90;92.00;;;;;;10046608;28;20531;-69
2022/02/26 10:00:44;;;;;;;6.60;2.30;;;7.10;91.90;;;;;;10041563;28;20612;-67
2022/02/26 10:05:35;;;;;;;5.82;2.42;;;7.20;91.70;;;;;;10043003;28;20041;-66
2022/02/26 10:10:28;;;;;;;8.55;3.05;;;7.30;91.50;;;;;;10046538;28;20036;-64
2022/02/26 10:15:23;;;;;;;5.03;2.55;;;7.30;91.50;;;;;;10037683;28;20116;-70
2022/02/26 10:20:17;;;;;;;4.13;2.05;;;8.00;91.50;;;;;;10034695;28;20081;-68
2022/02/26 10:25:10;;;;;;;4.78;1.63;;;7.40;90.20;;;;;;10036585;28;20032;-68
2022/02/26 10:30:00;;;;;;;2.40;1.67;;;7.30;90.40;;;;;;10040676;28;20122;-63
2022/02/26 10:34:56;;;;;;;3.55;1.60;;;7.40;90.40;;;;;;10041209;28;20536;-61
2022/02/26 10:39:54;;;;;;;4.82;1.27;;;7.50;90.20;;;;;;10046525;28;20038;-69
2022/02/26 10:44:45;;;;;;;2.33;1.38;;;7.40;88.50;;;;;;10045887;28;20037;-69
2022/02/26 10:49:43;;;;;;;2.53;1.15;;;7.30;87.80;;;;;;10038050;28;20049;-67
2022/02/26 10:54:35;;;;;;;3.75;1.48;;;7.30;88.20;;;;;;10046383;28;20577;-65
2022/02/26 10:59:41;;;;;;;6.97;2.20;;;7.30;87.50;;;;;;10040275;28;20041;-64
2022/02/26 11:04:34;;;;;;;3.47;2.30;;;7.50;87.10;;;;;;10036002;28;20047;-63
2022/02/26 11:09:25;;;;;;;5.68;1.75;;;7.60;86.90;;;;;;10036818;28;20091;-66
2022/02/26 11:14:19;;;;;;;3.95;2.08;;;8.10;86.00;;;;;;10026398;28;20049;-64
2022/02/26 11:19:12;;;;;;;3.83;1.60;;;7.80;84.40;;;;;;10051336;28;20465;-68
2022/02/26 11:24:03;;;;;;;3.30;1.83;;;7.60;84.20;;;;;;10049385;28;20049;-65
2022/02/26 11:28:58;;;;;;;5.18;1.65;;;7.50;85.80;;;;;;10044233;28;20118;-63
2022/02/26 11:33:49;;;;;;;3.77;2.07;;;7.70;85.00;;;;;;10039876;28;20589;-63
2022/02/26 11:38:43;;;;;;;3.40;1.75;;;8.10;83.40;;;;;;10052856;28;20112;-62
2022/02/26 11:43:39;;;;;;;3.70;2.58;;;8.10;83.90;;;;;;10052966;28;20034;-64
2022/02/26 11:48:34;;;;;;;;;;;8.10;82.70;;;;;;10047327;28;20408;-62
2022/02/26 11:53:24;;;;;;;3.47;1.40;;;8.00;82.20;;;;;;10047134;28;19917;-62
2022/02/26 11:58:23;;;;;;;7.25;1.67;;;8.20;82.50;;;;;;10046714;28;20030;-62
2022/02/26 12:03:26;;;;;;;4.07;1.90;;;8.30;82.80;;;;;;10052222;28;20030;-63
2022/02/26 12:08:20;;;;;;;2.47;1.80;;;8.60;81.50;;;;;;10046739;28;20437;-62
2022/02/26 12:13:50;;;;;;;4.25;1.83;;;8.50;82.20;;;;;;10062655;28;20056;-61
2022/02/26 12:18:44;;;;;;;6.05;2.35;;;8.30;79.10;;;;;;10043456;28;20547;-61
2022/02/26 12:23:36;;;;;;;3.17;2.30;;;8.10;82.00;;;;;;10045692;28;20509;-62
2022/02/26 12:28:27;;;;;;;4.97;1.70;;;8.30;80.90;;;;;;10044971;28;20049;-62
2022/02/26 12:33:19;;;;;;;4.78;2.00;;;8.20;80.90;;;;;;10036878;28;20029;-62
2022/02/26 12:38:30;;;;;;;2.58;1.77;;;8.40;80.60;;;;;;10039990;28;20429;-62
2022/02/26 12:43:28;;;;;;;9.02;2.10;;;8.80;80.20;;;;;;10050017;28;20408;-61
2022/02/26 12:48:19;;;;;;;3.10;2.03;;;9.00;79.30;;;;;;10037245;28;20400;-63
2022/02/26 12:53:10;;;;;;;4.05;1.83;;;9.30;79.30;;;;;;10039826;28;20022;-62
2022/02/26 12:58:01;;;;;;;4.55;1.98;;;9.60;78.90;;;;;;10051270;28;20029;-63
2022/02/26 13:02:55;;;;;;;7.30;1.58;;;9.40;78.00;;;;;;10045358;28;20453;-62
2022/02/26 13:07:46;;;;;;;6.00;1.85;;;9.40;79.00;;;;;;10040324;28;20539;-62
2022/02/26 13:12:39;;;;;;;5.38;2.95;;;9.90;79.20;;;;;;10046714;28;20069;-62
2022/02/26 13:17:32;;;;;;;4.15;1.92;;;10.50;79.30;;;;;;10038205;28;20029;-63
2022/02/26 13:22:23;;;;;;;2.50;1.30;;;11.20;79.10;;;;;;10037854;28;20029;-63
2022/02/26 13:27:17;;;;;;;2.67;1.90;;;11.60;79.70;;;;;;10046093;28;20052;-61
2022/02/26 13:32:24;;;;;;;5.88;1.83;;;11.60;78.50;;;;;;10041367;28;20021;-63
2022/02/26 13:37:15;;;;;;;2.92;1.38;;;11.90;79.90;;;;;;10041008;28;20508;-62
2022/02/26 13:42:06;;;;;;;4.15;2.20;;;12.30;80.40;;;;;;10043494;28;20102;-63
2022/02/26 13:46:57;;;;;;;3.20;1.65;;;12.40;79.70;;;;;;10041219;28;23840;-63
2022/02/26 13:51:48;;;;;;;6.72;1.98;;;13.10;80.10;;;;;;10036196;28;20022;-62
2022/02/26 13:56:40;;;;;;;5.80;1.92;;;13.60;79.40;;;;;;10041883;28;20028;-63
2022/02/26 14:01:31;;;;;;;7.15;2.97;;;12.80;74.90;;;;;;10035197;28;20045;-64
2022/02/26 14:06:35;;;;;;;2.67;1.52;;;12.40;75.70;;;;;;10042131;28;20041;-63
2022/02/26 14:11:31;;;;;;;2.10;1.23;;;13.30;74.90;;;;;;10038893;28;20048;-63
2022/02/26 14:16:23;;;;;;;3.85;1.23;;;13.70;73.40;;;;;;10033213;28;20156;-65
2022/02/26 14:21:18;;;;;;;4.90;1.90;;;14.60;72.30;;;;;;10040729;28;20037;-63
2022/02/26 14:26:09;;;;;;;6.47;1.58;;;15.60;69.10;;;;;;10035206;28;20029;-63
2022/02/26 14:31:00;;;;;;;9.25;2.05;;;14.50;66.00;;;;;;10044011;28;20026;-63
2022/02/26 14:35:51;;;;;;;3.30;1.70;;;15.30;64.20;;;;;;10037217;28;20033;-63
2022/02/26 14:40:42;;;;;;;5.82;2.13;;;17.30;61.50;;;;;;10044517;28;20485;-63
2022/02/26 14:45:34;;;;;;;7.93;1.70;;;16.70;56.00;;;;;;10035711;28;20101;-63
2022/02/26 14:50:25;;;;;;;4.00;1.65;;;12.70;60.80;;;;;;10027113;28;20068;-64
2022/02/26 14:55:18;;;;;;;4.53;1.77;;;11.00;61.90;;;;;;10038114;28;20041;-64
2022/02/26 15:00:12;;;;;;;4.97;1.60;;;13.10;60.10;;;;;;10042222;28;20048;-63
2022/02/26 15:05:03;;;;;;;4.47;1.40;;;18.60;51.60;;;;;;10051579;28;20026;-63
2022/02/26 15:09:55;;;;;;;4.80;2.47;;;19.70;47.60;;;;;;10051925;28;20396;-62
2022/02/26 15:14:45;;;;;;;4.25;1.70;;;21.00;46.40;;;;;;10049902;28;20095;-65
2022/02/26 15:19:37;;;;;;;3.28;1.33;;;21.80;44.50;;;;;;10042861;28;20030;-63
2022/02/26 15:24:28;;;;;;;3.40;1.38;;;21.10;44.10;;;;;;10046053;28;20566;-62
2022/02/26 15:29:19;;;;;;;2.38;1.80;;;16.70;48.40;;;;;;10051552;28;20103;-64
2022/02/26 15:34:10;;;;;;;3.72;1.40;;;16.10;47.60;;;;;;10042353;28;20030;-65
2022/02/26 15:39:01;;;;;;;4.57;1.52;;;15.70;48.10;;;;;;10041977;28;20029;-64
2022/02/26 15:43:52;;;;;;;5.30;1.40;;;14.10;49.00;;;;;;10051158;28;20032;-64
2022/02/26 15:48:42;;;;;;;4.72;1.70;;;12.30;50.30;;;;;;10049664;28;20044;-64
2022/02/26 15:53:34;;;;;;;4.80;2.05;;;12.90;50.30;;;;;;10047501;28;20055;-63
2022/02/26 15:58:25;;;;;;;5.13;1.65;;;12.50;48.70;;;;;;10038104;28;20029;-64
2022/02/26 16:03:15;;;;;;;2.08;1.20;;;11.10;51.10;;;;;;10037653;28;20026;-67
2022/02/26 16:08:06;;;;;;;2.60;1.20;;;10.30;51.70;;;;;;10039132;28;20136;-62
2022/02/26 16:12:57;;;;;;;2.15;1.20;;;10.80;51.40;;;;;;10046423;28;20228;-63
2022/02/26 16:17:48;;;;;;;7.00;1.92;;;13.70;47.40;;;;;;10038700;28;20177;-64
2022/02/26 16:22:39;;;;;;;4.05;1.45;;;13.90;46.70;;;;;;10048148;28;20037;-62
2022/02/26 16:27:29;;;;;;;3.92;1.67;;;12.70;47.50;;;;;;10045985;28;20034;-63
2022/02/26 16:32:20;;;;;;;9.60;3.53;;;10.70;50.60;;;;;;10043524;28;20048;-66
2022/02/26 16:37:11;;;;;;;2.03;1.25;;;9.80;52.00;;;;;;10048241;28;20034;-63
2022/02/26 16:42:03;;;;;;;4.35;1.58;;;9.40;52.60;;;;;;10037930;28;20496;-64
2022/02/26 16:46:54;;;;;;;4.82;1.17;;;9.20;52.70;;;;;;10041103;28;20040;-61
2022/02/26 16:51:44;;;;;;;3.95;1.35;;;9.00;52.90;;;;;;10044007;28;20028;-62
2022/02/26 16:56:35;;;;;;;2.75;1.58;;;8.90;53.10;;;;;;10047901;28;20214;-61
2022/02/26 17:01:26;;;;;;;3.00;1.27;;;8.80;53.00;;;;;;10039920;28;20659;-62
2022/02/26 17:06:17;;;;;;;3.15;1.05;;;8.60;53.60;;;;;;10041303;28;20073;-62
2022/02/26 17:11:07;;;;;;;2.88;1.13;;;8.40;53.80;;;;;;10045046;28;20083;-62
2022/02/26 17:15:58;;;;;;;3.25;1.33;;;8.30;54.20;;;;;;10043425;28;20056;-64
2022/02/26 17:20:49;;;;;;;3.88;1.50;;;8.20;54.10;;;;;;10047966;28;20298;-62
2022/02/26 17:25:41;;;;;;;4.57;1.85;;;8.20;54.30;;;;;;10040009;28;20064;-63
2022/02/26 17:30:32;;;;;;;5.45;1.52;;;8.00;54.60;;;;;;10039393;28;20655;-65
2022/02/26 17:35:23;;;;;;;3.97;1.75;;;8.00;55.10;;;;;;10047656;28;20029;-62
2022/02/26 17:40:15;;;;;;;6.57;1.63;;;7.90;55.30;;;;;;10035856;28;20492;-62
2022/02/26 17:45:07;;;;;;;4.15;1.52;;;7.70;55.60;;;;;;10045963;28;20021;-63
2022/02/26 17:49:57;;;;;;;3.20;1.60;;;7.70;56.20;;;;;;10046085;28;20072;-62
2022/02/26 17:54:48;;;;;;;2.70;1.30;;;7.50;56.50;;;;;;10035687;28;20054;-63
2022/02/26 17:59:39;;;;;;;2.95;1.30;;;7.50;56.60;;;;;;10042019;28;20499;-64
2022/02/26 18:04:29;;;;;;;1.25;0.82;;;7.50;57.00;;;;;;10046492;28;21320;-63
2022/02/26 18:09:20;;;;;;;2.70;1.10;;;7.40;57.20;;;;;;10045675;28;20037;-62
2022/02/26 18:14:11;;;;;;;3.42;1.45;;;7.30;57.70;;;;;;10038473;28;20037;-62
2022/02/26 18:19:02;;;;;;;3.55;1.20;;;7.20;57.90;;;;;;10042693;28;20546;-63
2022/02/26 18:23:54;;;;;;;4.57;1.13;;;7.20;58.40;;;;;;10040659;28;20087;-63
2022/02/26 18:28:45;;;;;;;4.05;1.13;;;7.10;58.80;;;;;;10042483;28;20311;-64
2022/02/26 18:33:36;;;;;;;3.42;1.60;;;7.00;59.00;;;;;;10044178;28;20036;-62
2022/02/26 18:38:26;;;;;;;3.83;1.30;;;6.90;59.40;;;;;;10045206;28;20040;-63
2022/02/26 18:43:17;;;;;;;7.13;2.67;;;7.00;59.30;;;;;;10041281;28;20491;-62
2022/02/26 18:48:08;;;;;;;4.80;1.58;;;6.90;59.60;;;;;;10044272;28;20056;-63
2022/02/26 18:53:00;;;;;;;6.40;1.90;;;7.90;60.60;;;;;;10039545;28;20034;-63
2022/02/26 18:57:50;;;;;;;4.15;1.50;;;6.70;60.40;;;;;;10042546;28;20056;-63
2022/02/26 19:02:41;;;;;;;1.45;1.30;;;6.70;60.20;;;;;;10038978;28;20029;-62
2022/02/26 19:07:32;;;;;;;2.88;1.35;;;6.70;60.90;;;;;;10039423;28;20067;-62
2022/02/26 19:12:24;;;;;;;2.65;1.20;;;6.60;61.20;;;;;;10034264;28;20052;-61
2022/02/26 19:17:15;;;;;;;2.58;1.45;;;6.50;61.40;;;;;;10042124;28;20237;-61
2022/02/26 19:22:06;;;;;;;3.28;1.25;;;6.50;61.50;;;;;;10031259;28;20148;-61
2022/02/26 19:26:57;;;;;;;2.83;1.75;;;6.40;61.60;;;;;;10033721;28;20403;-62
2022/02/26 19:31:48;;;;;;;6.13;1.90;;;6.40;62.20;;;;;;10040320;28;20466;-63
2022/02/26 19:36:39;;;;;;;5.95;1.48;;;6.30;62.30;;;;;;10034216;28;20034;-62
2022/02/26 19:41:29;;;;;;;4.68;1.98;;;6.30;62.60;;;;;;10040707;28;20026;-61
2022/02/26 19:46:20;;;;;;;3.92;1.92;;;6.20;62.70;;;;;;10039068;28;20073;-62
2022/02/26 19:51:11;;;;;;;4.68;1.90;;;6.20;62.90;;;;;;10047018;28;20048;-63
2022/02/26 19:56:02;;;;;;;5.72;2.05;;;6.20;62.90;;;;;;10044231;28;20025;-62
2022/02/26 20:00:53;;;;;;;5.78;2.10;;;6.10;63.10;;;;;;10051076;28;20025;-63
2022/02/26 20:05:44;;;;;;;4.35;1.90;;;6.10;63.30;;;;;;10045313;28;20139;-62
2022/02/26 20:10:35;;;;;;;3.75;1.25;;;6.10;63.40;;;;;;10040890;28;20083;-62
2022/02/26 20:15:25;;;;;;;3.42;1.48;;;6.00;64.00;;;;;;10043501;28;20052;-62
2022/02/26 20:20:16;;;;;;;3.10;1.75;;;6.00;64.20;;;;;;10047924;28;20029;-62
2022/02/26 20:25:07;;;;;;;8.70;1.80;;;6.00;64.10;;;;;;10049103;28;20060;-61
2022/02/26 20:29:58;;;;;;;3.72;2.10;;;5.80;64.10;;;;;;10046301;28;20505;-62
2022/02/26 20:34:49;;;;;;;5.97;1.83;;;5.90;64.20;;;;;;10043865;28;20122;-62
2022/02/26 20:39:39;;;;;;;5.85;2.72;;;5.80;64.50;;;;;;10041411;28;20026;-62
2022/02/26 20:44:30;;;;;;;4.88;2.30;;;5.80;64.60;;;;;;10036536;28;20500;-62
2022/02/26 20:49:21;;;;;;;5.05;1.80;;;5.70;64.60;;;;;;10045145;28;20044;-63
2022/02/26 20:54:12;;;;;;;2.90;1.23;;;5.70;64.80;;;;;;10043647;28;20034;-62
2022/02/26 20:59:03;;;;;;;4.85;1.23;;;5.60;65.00;;;;;;10038904;28;20101;-62
2022/02/26 21:03:53;;;;;;;5.88;1.90;;;5.60;65.00;;;;;;10042169;28;20570;-65
2022/02/26 21:08:45;;;;;;;3.17;1.40;;;5.50;65.30;;;;;;10039327;28;20051;-62
2022/02/26 21:13:36;;;;;;;3.00;1.65;;;5.50;65.30;;;;;;10048925;28;20037;-63
2022/02/26 21:18:28;;;;;;;4.10;1.40;;;5.50;65.30;;;;;;10047456;28;20037;-62
2022/02/26 21:23:19;;;;;;;4.28;1.50;;;5.40;65.40;;;;;;10036136;28;20026;-62
2022/02/26 21:28:12;;;;;;;3.95;1.70;;;5.40;65.60;;;;;;10042496;28;20124;-62
2022/02/26 21:33:03;;;;;;;2.85;1.63;;;5.50;65.40;;;;;;10040421;28;20264;-64
2022/02/26 21:37:54;;;;;;;3.72;1.17;;;5.40;65.70;;;;;;10047749;28;20522;-62
2022/02/26 21:42:45;;;;;;;4.13;1.35;;;5.50;65.70;;;;;;10048936;28;20041;-62
2022/02/26 21:47:36;;;;;;;4.30;1.73;;;5.50;66.10;;;;;;10038584;28;20254;-62
2022/02/26 21:52:26;;;;;;;3.15;1.73;;;5.40;66.60;;;;;;10042656;28;20297;-63
2022/02/26 21:57:17;;;;;;;4.07;1.90;;;5.30;66.80;;;;;;10037895;28;20026;-64
2022/02/26 22:02:07;;;;;;;2.65;1.42;;;5.30;66.80;;;;;;10042995;28;20033;-61
2022/02/26 22:06:58;;;;;;;4.68;1.85;;;5.20;67.00;;;;;;10046312;28;20038;-66
2022/02/26 22:11:49;;;;;;;3.53;1.50;;;5.20;67.20;;;;;;10046561;28;20029;-63
2022/02/26 22:16:40;;;;;;;2.70;1.38;;;5.10;67.40;;;;;;10047458;28;20048;-63
2022/02/26 22:21:30;;;;;;;4.68;1.45;;;5.00;67.70;;;;;;10035800;28;20021;-63
2022/02/26 22:26:21;;;;;;;3.78;1.70;;;4.90;68.20;;;;;;10037296;28;20247;-63
2022/02/26 22:31:14;;;;;;;2.97;1.73;;;3.90;67.90;;;;;;10041938;28;20119;-62
2022/02/26 22:36:07;;;;;;;3.47;1.63;;;4.80;68.50;;;;;;10038025;28;20017;-61
2022/02/26 22:40:58;;;;;;;3.08;1.20;;;4.60;69.40;;;;;;10034751;28;20029;-64
2022/02/26 22:45:51;;;;;;;6.20;1.73;;;4.60;69.10;;;;;;10034826;28;20103;-63
2022/02/26 22:50:42;;;;;;;3.20;1.63;;;4.60;69.30;;;;;;10041130;28;20065;-62
2022/02/26 22:55:32;;;;;;;3.50;1.70;;;4.60;69.80;;;;;;10032351;28;20041;-62
2022/02/26 23:00:26;;;;;;;6.22;2.42;;;4.50;70.30;;;;;;10035270;28;20045;-62
2022/02/26 23:05:17;;;;;;;3.20;1.73;;;4.40;71.10;;;;;;10039344;28;20400;-61
2022/02/26 23:10:08;;;;;;;2.40;1.63;;;4.40;71.20;;;;;;10044292;28;20032;-61
2022/02/26 23:14:59;;;;;;;5.32;1.85;;;4.30;71.30;;;;;;10035164;28;20582;-61
2022/02/26 23:19:49;;;;;;;3.47;1.73;;;4.20;72.10;;;;;;10046837;28;20222;-61
2022/02/26 23:24:40;;;;;;;4.63;1.70;;;4.20;72.70;;;;;;10039129;28;20030;-61
2022/02/26 23:29:31;;;;;;;3.03;2.10;;;4.00;73.30;;;;;;10046166;28;20049;-62
2022/02/26 23:34:22;;;;;;;4.68;1.50;;;4.00;73.80;;;;;;10037326;28;20512;-61
2022/02/26 23:39:13;;;;;;;4.70;1.52;;;4.00;74.00;;;;;;10041740;28;20427;-61
2022/02/26 23:44:04;;;;;;;5.32;1.25;;;4.00;73.90;;;;;;10048102;28;20136;-62
2022/02/26 23:48:55;;;;;;;4.65;1.63;;;4.00;73.90;;;;;;10042297;28;20135;-61
2022/02/26 23:53:46;;;;;;;1.27;1.17;;;3.90;75.00;;;;;;10051058;28;20676;-64
2022/02/26 23:58:37;;;;;;;2.15;1.13;;;3.80;75.70;;;;;;10037605;28;20033;-61
